sensor_id;sensor_type;location;lat;lon;timestamp;temperature;humidity
5017;DHT22;2527;50.892;16.706;2024-03-08T00:01:02;7.40;99.90
5017;DHT22;2527;50.892;16.706;2024-03-08T00:03:27;7.40;99.90
5017;DHT22;2527;50.892;16.706;2024-03-08T00:05:54;7.30;99.90
5017;DHT22;2527;50.892;16.706;2024-03-08T00:08:20;7.30;99.90
5017;DHT22;2527;50.892;16.706;2024-03-08T00:10:46;7.20;99.90
5017;DHT22;2527;50.892;16.706;2024-03-08T00:13:12;7.20;99.90
5017;DHT22;2527;50.892;16.706;2024-03-08T00:15:37;7.10;99.90
5017;DHT22;2527;50.892;16.706;2024-03-08T00:18:03;7.10;99.90
5017;DHT22;2527;50.892;16.706;2024-03-08T00:20:29;7.00;99.90
5017;DHT22;2527;50.892;16.706;2024-03-08T00:22:55;6.90;99.90
5017;DHT22;2527;50.892;16.706;2024-03-08T00:25:23;6.90;99.90
5017;DHT22;2527;50.892;16.706;2024-03-08T00:27:49;6.80;99.90
5017;DHT22;2527;50.892;16.706;2024-03-08T00:30:15;6.80;99.90
5017;DHT22;2527;50.892;16.706;2024-03-08T00:32:42;6.80;99.90
5017;DHT22;2527;50.892;16.706;2024-03-08T00:35:08;6.80;99.90
5017;DHT22;2527;50.892;16.706;2024-03-08T00:37:37;6.70;99.90
5017;DHT22;2527;50.892;16.706;2024-03-08T00:40:03;6.70;99.90
5017;DHT22;2527;50.892;16.706;2024-03-08T00:42:29;6.70;99.90
5017;DHT22;2527;50.892;16.706;2024-03-08T00:44:55;6.60;99.90
5017;DHT22;2527;50.892;16.706;2024-03-08T00:47:21;6.60;99.90
5017;DHT22;2527;50.892;16.706;2024-03-08T00:49:46;6.60;99.90
5017;DHT22;2527;50.892;16.706;2024-03-08T00:52:12;6.50;99.90
5017;DHT22;2527;50.892;16.706;2024-03-08T00:54:38;6.50;99.90
5017;DHT22;2527;50.892;16.706;2024-03-08T00:57:03;6.50;99.90
5017;DHT22;2527;50.892;16.706;2024-03-08T00:59:30;6.50;99.90
5017;DHT22;2527;50.892;16.706;2024-03-08T01:01:58;6.50;99.90
5017;DHT22;2527;50.892;16.706;2024-03-08T01:04:25;6.80;99.90
5017;DHT22;2527;50.892;16.706;2024-03-08T01:06:54;6.40;99.90
5017;DHT22;2527;50.892;16.706;2024-03-08T01:09:22;6.40;99.90
5017;DHT22;2527;50.892;16.706;2024-03-08T01:11:50;6.40;99.90
5017;DHT22;2527;50.892;16.706;2024-03-08T01:14:16;6.40;99.90
5017;DHT22;2527;50.892;16.706;2024-03-08T01:16:42;6.30;99.90
5017;DHT22;2527;50.892;16.706;2024-03-08T01:19:07;6.40;99.90
5017;DHT22;2527;50.892;16.706;2024-03-08T01:21:37;6.40;99.90
5017;DHT22;2527;50.892;16.706;2024-03-08T01:24:03;6.40;99.90
5017;DHT22;2527;50.892;16.706;2024-03-08T01:26:28;6.40;99.90
5017;DHT22;2527;50.892;16.706;2024-03-08T01:28:54;6.40;99.90
5017;DHT22;2527;50.892;16.706;2024-03-08T01:31:20;6.50;99.90
5017;DHT22;2527;50.892;16.706;2024-03-08T01:33:45;6.50;99.90
5017;DHT22;2527;50.892;16.706;2024-03-08T01:36:11;6.50;99.90
5017;DHT22;2527;50.892;16.706;2024-03-08T01:38:41;6.50;99.90
5017;DHT22;2527;50.892;16.706;2024-03-08T01:41:06;6.50;99.90
5017;DHT22;2527;50.892;16.706;2024-03-08T01:43:32;6.50;99.90
5017;DHT22;2527;50.892;16.706;2024-03-08T01:45:58;6.50;99.90
5017;DHT22;2527;50.892;16.706;2024-03-08T01:48:29;6.60;99.90
5017;DHT22;2527;50.892;16.706;2024-03-08T01:50:58;6.60;99.90
5017;DHT22;2527;50.892;16.706;2024-03-08T01:53:24;6.60;99.90
5017;DHT22;2527;50.892;16.706;2024-03-08T01:55:51;6.60;99.90
5017;DHT22;2527;50.892;16.706;2024-03-08T01:58:18;6.60;99.90
5017;DHT22;2527;50.892;16.706;2024-03-08T02:00:47;6.50;99.90
5017;DHT22;2527;50.892;16.706;2024-03-08T02:03:17;6.60;99.90
5017;DHT22;2527;50.892;16.706;2024-03-08T02:05:44;6.60;99.90
5017;DHT22;2527;50.892;16.706;2024-03-08T02:08:18;6.60;99.90
5017;DHT22;2527;50.892;16.706;2024-03-08T02:10:47;6.60;99.90
5017;DHT22;2527;50.892;16.706;2024-03-08T02:13:15;6.60;99.90
5017;DHT22;2527;50.892;16.706;2024-03-08T02:15:53;6.60;99.90
5017;DHT22;2527;50.892;16.706;2024-03-08T02:18:19;6.60;99.90
5017;DHT22;2527;50.892;16.706;2024-03-08T02:20:55;6.60;99.90
5017;DHT22;2527;50.892;16.706;2024-03-08T02:23:22;6.60;99.90
5017;DHT22;2527;50.892;16.706;2024-03-08T02:25:49;6.60;99.90
5017;DHT22;2527;50.892;16.706;2024-03-08T02:28:14;6.60;99.90
5017;DHT22;2527;50.892;16.706;2024-03-08T02:30:40;6.60;99.90
5017;DHT22;2527;50.892;16.706;2024-03-08T02:33:06;6.60;99.90
5017;DHT22;2527;50.892;16.706;2024-03-08T02:35:35;6.60;99.90
5017;DHT22;2527;50.892;16.706;2024-03-08T02:38:01;6.60;99.90
5017;DHT22;2527;50.892;16.706;2024-03-08T02:40:28;6.60;99.90
5017;DHT22;2527;50.892;16.706;2024-03-08T02:42:54;6.60;99.90
5017;DHT22;2527;50.892;16.706;2024-03-08T02:45:20;6.60;99.90
5017;DHT22;2527;50.892;16.706;2024-03-08T02:47:46;6.60;99.90
5017;DHT22;2527;50.892;16.706;2024-03-08T02:50:11;6.60;99.90
5017;DHT22;2527;50.892;16.706;2024-03-08T02:52:41;6.60;99.90
5017;DHT22;2527;50.892;16.706;2024-03-08T02:55:07;6.50;99.90
5017;DHT22;2527;50.892;16.706;2024-03-08T02:57:33;6.50;99.90
5017;DHT22;2527;50.892;16.706;2024-03-08T03:00:00;6.50;99.90
5017;DHT22;2527;50.892;16.706;2024-03-08T03:02:29;6.50;99.90
5017;DHT22;2527;50.892;16.706;2024-03-08T03:04:54;6.50;99.90
5017;DHT22;2527;50.892;16.706;2024-03-08T03:07:21;6.50;99.90
5017;DHT22;2527;50.892;16.706;2024-03-08T03:09:48;6.50;99.90
5017;DHT22;2527;50.892;16.706;2024-03-08T03:12:14;6.50;99.90
5017;DHT22;2527;50.892;16.706;2024-03-08T03:14:39;6.50;99.90
5017;DHT22;2527;50.892;16.706;2024-03-08T03:17:05;6.50;99.90
5017;DHT22;2527;50.892;16.706;2024-03-08T03:19:31;6.50;99.90
5017;DHT22;2527;50.892;16.706;2024-03-08T03:21:57;6.50;99.90
5017;DHT22;2527;50.892;16.706;2024-03-08T03:24:23;6.50;99.90
5017;DHT22;2527;50.892;16.706;2024-03-08T03:26:48;6.50;99.90
5017;DHT22;2527;50.892;16.706;2024-03-08T03:29:15;6.50;99.90
5017;DHT22;2527;50.892;16.706;2024-03-08T03:31:42;6.50;99.90
5017;DHT22;2527;50.892;16.706;2024-03-08T03:34:10;6.50;99.90
5017;DHT22;2527;50.892;16.706;2024-03-08T03:36:37;6.50;99.90
5017;DHT22;2527;50.892;16.706;2024-03-08T03:39:03;6.50;99.90
5017;DHT22;2527;50.892;16.706;2024-03-08T03:41:41;6.50;99.90
5017;DHT22;2527;50.892;16.706;2024-03-08T03:44:09;6.40;99.90
5017;DHT22;2527;50.892;16.706;2024-03-08T03:46:35;6.40;99.90
5017;DHT22;2527;50.892;16.706;2024-03-08T03:49:01;6.40;99.90
5017;DHT22;2527;50.892;16.706;2024-03-08T03:51:26;6.50;99.90
5017;DHT22;2527;50.892;16.706;2024-03-08T03:53:54;6.40;99.90
5017;DHT22;2527;50.892;16.706;2024-03-08T03:56:26;6.40;99.90
5017;DHT22;2527;50.892;16.706;2024-03-08T03:58:52;6.40;99.90
5017;DHT22;2527;50.892;16.706;2024-03-08T04:01:18;6.50;99.90
5017;DHT22;2527;50.892;16.706;2024-03-08T04:03:44;6.40;99.90
5017;DHT22;2527;50.892;16.706;2024-03-08T04:06:10;6.40;99.90
5017;DHT22;2527;50.892;16.706;2024-03-08T04:08:35;6.40;99.90
5017;DHT22;2527;50.892;16.706;2024-03-08T04:11:01;6.40;99.90
5017;DHT22;2527;50.892;16.706;2024-03-08T04:13:28;6.40;99.90
5017;DHT22;2527;50.892;16.706;2024-03-08T04:15:55;6.40;99.90
5017;DHT22;2527;50.892;16.706;2024-03-08T04:18:21;6.40;99.90
5017;DHT22;2527;50.892;16.706;2024-03-08T04:20:48;6.30;99.90
5017;DHT22;2527;50.892;16.706;2024-03-08T04:23:15;6.40;99.90
5017;DHT22;2527;50.892;16.706;2024-03-08T04:25:41;6.30;99.90
5017;DHT22;2527;50.892;16.706;2024-03-08T04:28:07;6.30;99.90
5017;DHT22;2527;50.892;16.706;2024-03-08T04:30:35;6.30;99.90
5017;DHT22;2527;50.892;16.706;2024-03-08T04:33:02;6.30;99.90
5017;DHT22;2527;50.892;16.706;2024-03-08T04:35:28;6.20;99.90
5017;DHT22;2527;50.892;16.706;2024-03-08T04:37:54;6.20;99.90
5017;DHT22;2527;50.892;16.706;2024-03-08T04:40:20;6.10;99.90
5017;DHT22;2527;50.892;16.706;2024-03-08T04:42:45;6.10;99.90
5017;DHT22;2527;50.892;16.706;2024-03-08T04:45:13;6.00;99.90
5017;DHT22;2527;50.892;16.706;2024-03-08T04:47:39;6.00;99.90
5017;DHT22;2527;50.892;16.706;2024-03-08T04:50:06;5.90;99.90
5017;DHT22;2527;50.892;16.706;2024-03-08T04:52:34;5.90;99.90
5017;DHT22;2527;50.892;16.706;2024-03-08T04:55:01;5.80;99.90
5017;DHT22;2527;50.892;16.706;2024-03-08T04:57:29;5.80;99.90
5017;DHT22;2527;50.892;16.706;2024-03-08T04:59:55;5.80;99.90
5017;DHT22;2527;50.892;16.706;2024-03-08T05:02:21;5.70;99.90
5017;DHT22;2527;50.892;16.706;2024-03-08T05:04:51;5.70;99.90
5017;DHT22;2527;50.892;16.706;2024-03-08T05:07:16;5.70;99.90
5017;DHT22;2527;50.892;16.706;2024-03-08T05:09:43;5.60;99.90
5017;DHT22;2527;50.892;16.706;2024-03-08T05:12:17;5.60;99.90
5017;DHT22;2527;50.892;16.706;2024-03-08T05:14:42;5.50;99.90
5017;DHT22;2527;50.892;16.706;2024-03-08T05:17:08;5.50;99.90
5017;DHT22;2527;50.892;16.706;2024-03-08T05:19:36;5.40;99.90
5017;DHT22;2527;50.892;16.706;2024-03-08T05:22:01;5.40;99.90
5017;DHT22;2527;50.892;16.706;2024-03-08T05:24:27;5.40;99.90
5017;DHT22;2527;50.892;16.706;2024-03-08T05:26:54;5.40;99.90
5017;DHT22;2527;50.892;16.706;2024-03-08T05:29:20;5.40;99.90
5017;DHT22;2527;50.892;16.706;2024-03-08T05:31:46;5.40;99.90
5017;DHT22;2527;50.892;16.706;2024-03-08T05:34:12;5.40;99.90
5017;DHT22;2527;50.892;16.706;2024-03-08T05:36:40;5.30;99.90
5017;DHT22;2527;50.892;16.706;2024-03-08T05:39:08;5.30;99.90
5017;DHT22;2527;50.892;16.706;2024-03-08T05:41:37;5.40;99.90
5017;DHT22;2527;50.892;16.706;2024-03-08T05:44:03;5.30;99.90
5017;DHT22;2527;50.892;16.706;2024-03-08T05:46:31;5.30;99.90
5017;DHT22;2527;50.892;16.706;2024-03-08T05:48:57;5.30;99.90
5017;DHT22;2527;50.892;16.706;2024-03-08T05:51:24;5.30;99.90
5017;DHT22;2527;50.892;16.706;2024-03-08T05:53:51;5.30;99.90
5017;DHT22;2527;50.892;16.706;2024-03-08T05:56:19;5.30;99.90
5017;DHT22;2527;50.892;16.706;2024-03-08T05:58:44;5.30;99.90
5017;DHT22;2527;50.892;16.706;2024-03-08T06:01:11;5.30;99.90
5017;DHT22;2527;50.892;16.706;2024-03-08T06:03:38;5.30;99.90
5017;DHT22;2527;50.892;16.706;2024-03-08T06:06:13;5.40;99.90
5017;DHT22;2527;50.892;16.706;2024-03-08T06:08:39;5.40;99.90
5017;DHT22;2527;50.892;16.706;2024-03-08T06:11:05;5.40;99.90
5017;DHT22;2527;50.892;16.706;2024-03-08T06:13:34;5.50;99.90
5017;DHT22;2527;50.892;16.706;2024-03-08T06:16:02;5.50;99.90
5017;DHT22;2527;50.892;16.706;2024-03-08T06:18:33;5.60;99.90
5017;DHT22;2527;50.892;16.706;2024-03-08T06:21:02;5.60;99.90
5017;DHT22;2527;50.892;16.706;2024-03-08T06:23:28;5.70;99.90
5017;DHT22;2527;50.892;16.706;2024-03-08T06:25:54;5.70;99.90
5017;DHT22;2527;50.892;16.706;2024-03-08T06:28:19;5.70;99.90
5017;DHT22;2527;50.892;16.706;2024-03-08T06:30:46;5.80;99.90
5017;DHT22;2527;50.892;16.706;2024-03-08T06:33:20;6.00;99.90
5017;DHT22;2527;50.892;16.706;2024-03-08T06:35:46;6.10;99.90
5017;DHT22;2527;50.892;16.706;2024-03-08T06:38:12;6.20;99.90
5017;DHT22;2527;50.892;16.706;2024-03-08T06:40:40;6.30;99.90
5017;DHT22;2527;50.892;16.706;2024-03-08T06:43:08;6.40;99.90
5017;DHT22;2527;50.892;16.706;2024-03-08T06:45:37;6.60;99.90
5017;DHT22;2527;50.892;16.706;2024-03-08T06:48:03;6.70;99.90
5017;DHT22;2527;50.892;16.706;2024-03-08T06:50:28;6.80;99.90
5017;DHT22;2527;50.892;16.706;2024-03-08T06:52:54;6.90;99.90
5017;DHT22;2527;50.892;16.706;2024-03-08T06:55:20;7.00;99.90
5017;DHT22;2527;50.892;16.706;2024-03-08T06:57:48;7.10;99.90
5017;DHT22;2527;50.892;16.706;2024-03-08T07:00:17;7.20;99.90
5017;DHT22;2527;50.892;16.706;2024-03-08T07:02:44;7.20;99.90
5017;DHT22;2527;50.892;16.706;2024-03-08T07:05:19;7.30;99.90
5017;DHT22;2527;50.892;16.706;2024-03-08T07:07:45;7.40;99.90
5017;DHT22;2527;50.892;16.706;2024-03-08T07:10:13;7.40;99.90
5017;DHT22;2527;50.892;16.706;2024-03-08T07:12:41;7.50;99.90
5017;DHT22;2527;50.892;16.706;2024-03-08T07:15:07;7.60;99.90
5017;DHT22;2527;50.892;16.706;2024-03-08T07:17:33;7.70;99.90
5017;DHT22;2527;50.892;16.706;2024-03-08T07:20:01;7.70;99.90
5017;DHT22;2527;50.892;16.706;2024-03-08T07:22:33;7.80;99.90
5017;DHT22;2527;50.892;16.706;2024-03-08T07:24:58;7.90;99.90
5017;DHT22;2527;50.892;16.706;2024-03-08T07:27:33;8.00;99.90
5017;DHT22;2527;50.892;16.706;2024-03-08T07:29:59;8.00;99.90
5017;DHT22;2527;50.892;16.706;2024-03-08T07:32:26;8.10;99.90
5017;DHT22;2527;50.892;16.706;2024-03-08T07:34:53;8.20;99.90
5017;DHT22;2527;50.892;16.706;2024-03-08T07:37:20;8.30;99.90
5017;DHT22;2527;50.892;16.706;2024-03-08T07:39:46;8.40;99.90
5017;DHT22;2527;50.892;16.706;2024-03-08T07:42:12;8.40;99.90
5017;DHT22;2527;50.892;16.706;2024-03-08T07:44:38;8.50;99.90
5017;DHT22;2527;50.892;16.706;2024-03-08T07:47:05;8.60;99.90
5017;DHT22;2527;50.892;16.706;2024-03-08T07:49:37;8.60;99.90
5017;DHT22;2527;50.892;16.706;2024-03-08T07:52:04;8.70;99.90
5017;DHT22;2527;50.892;16.706;2024-03-08T07:54:33;8.70;99.90
5017;DHT22;2527;50.892;16.706;2024-03-08T07:56:59;8.70;99.90
5017;DHT22;2527;50.892;16.706;2024-03-08T07:59:27;8.80;99.90
5017;DHT22;2527;50.892;16.706;2024-03-08T08:01:54;8.90;99.90
5017;DHT22;2527;50.892;16.706;2024-03-08T08:04:20;9.00;99.90
5017;DHT22;2527;50.892;16.706;2024-03-08T08:06:50;9.00;99.90
5017;DHT22;2527;50.892;16.706;2024-03-08T08:09:16;9.20;99.90
5017;DHT22;2527;50.892;16.706;2024-03-08T08:11:53;9.10;99.90
5017;DHT22;2527;50.892;16.706;2024-03-08T08:14:19;9.20;99.90
5017;DHT22;2527;50.892;16.706;2024-03-08T08:16:46;9.20;99.90
5017;DHT22;2527;50.892;16.706;2024-03-08T08:19:14;9.30;99.90
5017;DHT22;2527;50.892;16.706;2024-03-08T08:21:40;9.30;99.90
5017;DHT22;2527;50.892;16.706;2024-03-08T08:24:05;9.40;99.90
5017;DHT22;2527;50.892;16.706;2024-03-08T08:26:37;9.50;99.90
5017;DHT22;2527;50.892;16.706;2024-03-08T08:29:18;9.50;99.90
5017;DHT22;2527;50.892;16.706;2024-03-08T08:31:46;9.60;99.90
5017;DHT22;2527;50.892;16.706;2024-03-08T08:34:12;9.60;99.90
5017;DHT22;2527;50.892;16.706;2024-03-08T08:36:39;9.70;99.90
5017;DHT22;2527;50.892;16.706;2024-03-08T08:39:05;9.80;99.90
5017;DHT22;2527;50.892;16.706;2024-03-08T08:41:39;9.80;99.90
5017;DHT22;2527;50.892;16.706;2024-03-08T08:44:13;9.80;99.90
5017;DHT22;2527;50.892;16.706;2024-03-08T08:46:41;9.90;99.90
5017;DHT22;2527;50.892;16.706;2024-03-08T08:49:07;9.90;99.90
5017;DHT22;2527;50.892;16.706;2024-03-08T08:51:36;10.00;99.90
5017;DHT22;2527;50.892;16.706;2024-03-08T08:54:03;10.00;99.90
5017;DHT22;2527;50.892;16.706;2024-03-08T08:56:33;10.00;99.90
5017;DHT22;2527;50.892;16.706;2024-03-08T08:58:59;10.00;99.90
5017;DHT22;2527;50.892;16.706;2024-03-08T09:01:27;10.10;99.90
5017;DHT22;2527;50.892;16.706;2024-03-08T09:03:55;10.10;99.90
5017;DHT22;2527;50.892;16.706;2024-03-08T09:06:22;10.10;99.90
5017;DHT22;2527;50.892;16.706;2024-03-08T09:08:48;10.10;99.90
5017;DHT22;2527;50.892;16.706;2024-03-08T09:11:14;10.10;99.90
5017;DHT22;2527;50.892;16.706;2024-03-08T09:13:40;10.10;99.90
5017;DHT22;2527;50.892;16.706;2024-03-08T09:16:08;10.10;99.90
5017;DHT22;2527;50.892;16.706;2024-03-08T09:18:37;10.10;99.90
5017;DHT22;2527;50.892;16.706;2024-03-08T09:21:04;10.10;99.90
5017;DHT22;2527;50.892;16.706;2024-03-08T09:23:31;10.10;99.90
5017;DHT22;2527;50.892;16.706;2024-03-08T09:25:58;10.10;99.90
5017;DHT22;2527;50.892;16.706;2024-03-08T09:28:24;10.10;99.90
5017;DHT22;2527;50.892;16.706;2024-03-08T09:30:51;10.10;99.90
5017;DHT22;2527;50.892;16.706;2024-03-08T09:33:19;10.10;99.90
5017;DHT22;2527;50.892;16.706;2024-03-08T09:35:47;10.10;99.90
5017;DHT22;2527;50.892;16.706;2024-03-08T09:38:16;10.10;99.90
5017;DHT22;2527;50.892;16.706;2024-03-08T09:40:43;10.10;99.90
5017;DHT22;2527;50.892;16.706;2024-03-08T09:43:13;10.10;99.90
5017;DHT22;2527;50.892;16.706;2024-03-08T09:45:41;10.10;99.90
5017;DHT22;2527;50.892;16.706;2024-03-08T09:48:10;10.10;99.90
5017;DHT22;2527;50.892;16.706;2024-03-08T09:50:38;10.20;99.90
5017;DHT22;2527;50.892;16.706;2024-03-08T09:53:08;10.20;99.90
5017;DHT22;2527;50.892;16.706;2024-03-08T09:55:38;10.20;99.90
5017;DHT22;2527;50.892;16.706;2024-03-08T09:58:10;10.20;99.90
5017;DHT22;2527;50.892;16.706;2024-03-08T10:00:42;10.20;99.90
5017;DHT22;2527;50.892;16.706;2024-03-08T10:03:07;10.20;99.90
5017;DHT22;2527;50.892;16.706;2024-03-08T10:05:34;10.10;99.90
5017;DHT22;2527;50.892;16.706;2024-03-08T10:08:00;10.10;99.90
5017;DHT22;2527;50.892;16.706;2024-03-08T10:10:25;10.00;99.90
5017;DHT22;2527;50.892;16.706;2024-03-08T10:12:51;10.10;99.90
5017;DHT22;2527;50.892;16.706;2024-03-08T10:15:17;10.10;99.90
5017;DHT22;2527;50.892;16.706;2024-03-08T10:17:43;10.10;99.90
5017;DHT22;2527;50.892;16.706;2024-03-08T10:20:15;10.10;99.90
5017;DHT22;2527;50.892;16.706;2024-03-08T10:22:41;10.20;99.90
5017;DHT22;2527;50.892;16.706;2024-03-08T10:25:10;10.10;99.90
5017;DHT22;2527;50.892;16.706;2024-03-08T10:27:41;10.30;99.90
5017;DHT22;2527;50.892;16.706;2024-03-08T10:30:15;10.00;99.90
5017;DHT22;2527;50.892;16.706;2024-03-08T10:32:45;10.00;99.90
5017;DHT22;2527;50.892;16.706;2024-03-08T10:35:11;10.00;99.90
5017;DHT22;2527;50.892;16.706;2024-03-08T10:37:44;10.00;99.90
5017;DHT22;2527;50.892;16.706;2024-03-08T10:40:18;10.00;99.90
5017;DHT22;2527;50.892;16.706;2024-03-08T10:42:51;9.90;99.90
5017;DHT22;2527;50.892;16.706;2024-03-08T10:50:33;10.00;99.90
5017;DHT22;2527;50.892;16.706;2024-03-08T10:53:01;10.00;99.90
5017;DHT22;2527;50.892;16.706;2024-03-08T10:55:28;10.00;99.90
5017;DHT22;2527;50.892;16.706;2024-03-08T10:57:54;10.00;99.90
5017;DHT22;2527;50.892;16.706;2024-03-08T11:00:20;10.00;99.90
5017;DHT22;2527;50.892;16.706;2024-03-08T11:02:52;10.00;99.90
5017;DHT22;2527;50.892;16.706;2024-03-08T11:05:32;10.00;99.90
5017;DHT22;2527;50.892;16.706;2024-03-08T11:10:51;9.90;99.90
5017;DHT22;2527;50.892;16.706;2024-03-08T11:13:38;9.90;99.90
5017;DHT22;2527;50.892;16.706;2024-03-08T11:19:44;9.80;99.90
5017;DHT22;2527;50.892;16.706;2024-03-08T11:21:39;9.80;99.90
5017;DHT22;2527;50.892;16.706;2024-03-08T11:26:37;9.80;99.90
5017;DHT22;2527;50.892;16.706;2024-03-08T11:31:48;9.80;99.90
5017;DHT22;2527;50.892;16.706;2024-03-08T11:34:16;9.80;99.90
5017;DHT22;2527;50.892;16.706;2024-03-08T11:36:42;9.80;99.90
5017;DHT22;2527;50.892;16.706;2024-03-08T11:39:07;9.80;99.90
5017;DHT22;2527;50.892;16.706;2024-03-08T11:41:40;9.80;99.90
5017;DHT22;2527;50.892;16.706;2024-03-08T11:44:07;9.80;99.90
5017;DHT22;2527;50.892;16.706;2024-03-08T11:46:34;9.80;99.90
5017;DHT22;2527;50.892;16.706;2024-03-08T11:49:00;9.80;99.90
5017;DHT22;2527;50.892;16.706;2024-03-08T11:51:26;9.80;99.90
5017;DHT22;2527;50.892;16.706;2024-03-08T11:53:53;9.80;99.90
5017;DHT22;2527;50.892;16.706;2024-03-08T11:56:19;9.80;99.90
5017;DHT22;2527;50.892;16.706;2024-03-08T11:58:57;10.00;99.90
5017;DHT22;2527;50.892;16.706;2024-03-08T12:01:23;9.80;99.90
5017;DHT22;2527;50.892;16.706;2024-03-08T12:03:52;9.80;99.90
5017;DHT22;2527;50.892;16.706;2024-03-08T12:06:19;9.80;99.90
5017;DHT22;2527;50.892;16.706;2024-03-08T12:08:46;9.80;99.90
5017;DHT22;2527;50.892;16.706;2024-03-08T12:11:16;9.70;99.90
5017;DHT22;2527;50.892;16.706;2024-03-08T12:13:48;9.80;99.90
5017;DHT22;2527;50.892;16.706;2024-03-08T12:16:16;9.70;99.90
5017;DHT22;2527;50.892;16.706;2024-03-08T12:18:43;9.70;99.90
5017;DHT22;2527;50.892;16.706;2024-03-08T12:21:10;9.60;99.90
5017;DHT22;2527;50.892;16.706;2024-03-08T12:23:36;9.60;99.90
5017;DHT22;2527;50.892;16.706;2024-03-08T12:26:15;9.60;99.90
5017;DHT22;2527;50.892;16.706;2024-03-08T12:28:42;9.60;99.90
5017;DHT22;2527;50.892;16.706;2024-03-08T12:31:18;9.60;99.90
5017;DHT22;2527;50.892;16.706;2024-03-08T12:33:50;9.60;99.90
5017;DHT22;2527;50.892;16.706;2024-03-08T12:36:16;9.60;99.90
5017;DHT22;2527;50.892;16.706;2024-03-08T12:38:46;9.60;99.90
5017;DHT22;2527;50.892;16.706;2024-03-08T12:41:15;9.60;99.90
5017;DHT22;2527;50.892;16.706;2024-03-08T12:43:42;9.70;99.90
5017;DHT22;2527;50.892;16.706;2024-03-08T12:46:13;9.70;99.90
5017;DHT22;2527;50.892;16.706;2024-03-08T12:48:39;9.70;99.90
5017;DHT22;2527;50.892;16.706;2024-03-08T12:51:08;9.70;99.90
5017;DHT22;2527;50.892;16.706;2024-03-08T12:53:35;9.80;99.90
5017;DHT22;2527;50.892;16.706;2024-03-08T12:56:01;9.80;99.90
5017;DHT22;2527;50.892;16.706;2024-03-08T12:58:28;9.80;99.90
5017;DHT22;2527;50.892;16.706;2024-03-08T13:00:54;9.80;99.90
5017;DHT22;2527;50.892;16.706;2024-03-08T13:03:22;9.80;99.90
5017;DHT22;2527;50.892;16.706;2024-03-08T13:05:50;9.80;99.90
5017;DHT22;2527;50.892;16.706;2024-03-08T13:08:16;9.80;99.90
5017;DHT22;2527;50.892;16.706;2024-03-08T13:10:43;9.80;99.90
5017;DHT22;2527;50.892;16.706;2024-03-08T13:13:09;9.70;99.90
5017;DHT22;2527;50.892;16.706;2024-03-08T13:15:35;9.70;99.90
5017;DHT22;2527;50.892;16.706;2024-03-08T13:18:02;9.80;99.90
5017;DHT22;2527;50.892;16.706;2024-03-08T13:20:29;9.70;99.90
5017;DHT22;2527;50.892;16.706;2024-03-08T13:22:55;9.70;99.90
5017;DHT22;2527;50.892;16.706;2024-03-08T13:25:21;9.70;99.90
5017;DHT22;2527;50.892;16.706;2024-03-08T13:27:47;9.80;99.90
5017;DHT22;2527;50.892;16.706;2024-03-08T13:30:14;9.80;99.90
5017;DHT22;2527;50.892;16.706;2024-03-08T13:32:43;9.80;99.90
5017;DHT22;2527;50.892;16.706;2024-03-08T13:35:09;9.80;99.90
5017;DHT22;2527;50.892;16.706;2024-03-08T13:37:41;9.80;99.90
5017;DHT22;2527;50.892;16.706;2024-03-08T13:40:08;9.80;99.90
5017;DHT22;2527;50.892;16.706;2024-03-08T13:42:37;9.80;99.90
5017;DHT22;2527;50.892;16.706;2024-03-08T13:45:05;9.80;99.90
5017;DHT22;2527;50.892;16.706;2024-03-08T13:47:32;9.80;99.90
5017;DHT22;2527;50.892;16.706;2024-03-08T13:49:59;9.80;99.90
5017;DHT22;2527;50.892;16.706;2024-03-08T13:52:26;9.80;99.90
5017;DHT22;2527;50.892;16.706;2024-03-08T13:54:55;9.70;99.90
5017;DHT22;2527;50.892;16.706;2024-03-08T13:57:21;9.80;99.90
5017;DHT22;2527;50.892;16.706;2024-03-08T13:59:50;9.80;99.90
5017;DHT22;2527;50.892;16.706;2024-03-08T14:02:16;9.80;99.90
5017;DHT22;2527;50.892;16.706;2024-03-08T14:04:42;9.80;99.90
5017;DHT22;2527;50.892;16.706;2024-03-08T14:07:08;9.80;99.90
5017;DHT22;2527;50.892;16.706;2024-03-08T14:09:34;9.80;99.90
5017;DHT22;2527;50.892;16.706;2024-03-08T14:12:08;9.80;99.90
5017;DHT22;2527;50.892;16.706;2024-03-08T14:14:35;9.80;99.90
5017;DHT22;2527;50.892;16.706;2024-03-08T14:17:04;9.90;99.90
5017;DHT22;2527;50.892;16.706;2024-03-08T14:19:32;9.90;99.90
5017;DHT22;2527;50.892;16.706;2024-03-08T14:21:59;9.90;99.90
5017;DHT22;2527;50.892;16.706;2024-03-08T14:24:25;9.90;99.90
5017;DHT22;2527;50.892;16.706;2024-03-08T14:26:51;9.90;99.90
5017;DHT22;2527;50.892;16.706;2024-03-08T14:29:17;9.90;99.90
5017;DHT22;2527;50.892;16.706;2024-03-08T14:31:45;10.00;99.90
5017;DHT22;2527;50.892;16.706;2024-03-08T14:34:11;10.00;99.90
5017;DHT22;2527;50.892;16.706;2024-03-08T14:36:37;10.00;99.90
5017;DHT22;2527;50.892;16.706;2024-03-08T14:39:03;10.00;99.90
5017;DHT22;2527;50.892;16.706;2024-03-08T14:41:29;10.00;99.90
5017;DHT22;2527;50.892;16.706;2024-03-08T14:43:55;10.00;99.90
5017;DHT22;2527;50.892;16.706;2024-03-08T14:46:24;10.00;99.90
5017;DHT22;2527;50.892;16.706;2024-03-08T14:48:49;10.00;99.90
5017;DHT22;2527;50.892;16.706;2024-03-08T14:51:19;10.00;99.90
5017;DHT22;2527;50.892;16.706;2024-03-08T14:53:49;10.00;99.90
5017;DHT22;2527;50.892;16.706;2024-03-08T14:56:21;10.00;99.90
5017;DHT22;2527;50.892;16.706;2024-03-08T14:58:48;10.00;99.90
5017;DHT22;2527;50.892;16.706;2024-03-08T15:01:18;10.00;99.90
5017;DHT22;2527;50.892;16.706;2024-03-08T15:03:49;10.00;99.90
5017;DHT22;2527;50.892;16.706;2024-03-08T15:06:17;10.00;99.90
5017;DHT22;2527;50.892;16.706;2024-03-08T15:08:45;10.00;99.90
5017;DHT22;2527;50.892;16.706;2024-03-08T15:11:11;10.00;99.90
5017;DHT22;2527;50.892;16.706;2024-03-08T15:13:37;10.00;99.90
5017;DHT22;2527;50.892;16.706;2024-03-08T15:16:10;10.00;99.90
5017;DHT22;2527;50.892;16.706;2024-03-08T15:18:44;10.00;99.90
5017;DHT22;2527;50.892;16.706;2024-03-08T15:21:14;10.00;99.90
5017;DHT22;2527;50.892;16.706;2024-03-08T15:23:46;10.00;99.90
5017;DHT22;2527;50.892;16.706;2024-03-08T15:26:20;10.00;99.90
5017;DHT22;2527;50.892;16.706;2024-03-08T15:28:46;10.00;99.90
5017;DHT22;2527;50.892;16.706;2024-03-08T15:31:14;10.00;99.90
5017;DHT22;2527;50.892;16.706;2024-03-08T15:33:41;10.00;99.90
5017;DHT22;2527;50.892;16.706;2024-03-08T15:36:16;10.10;99.90
5017;DHT22;2527;50.892;16.706;2024-03-08T15:38:43;10.10;99.90
5017;DHT22;2527;50.892;16.706;2024-03-08T15:41:16;10.10;99.90
5017;DHT22;2527;50.892;16.706;2024-03-08T15:43:43;10.10;99.90
5017;DHT22;2527;50.892;16.706;2024-03-08T15:46:10;10.00;99.90
5017;DHT22;2527;50.892;16.706;2024-03-08T15:48:36;10.00;99.90
5017;DHT22;2527;50.892;16.706;2024-03-08T15:51:02;10.00;99.90
5017;DHT22;2527;50.892;16.706;2024-03-08T15:53:32;10.00;99.90
5017;DHT22;2527;50.892;16.706;2024-03-08T15:56:02;10.00;99.90
5017;DHT22;2527;50.892;16.706;2024-03-08T15:58:31;10.10;99.90
5017;DHT22;2527;50.892;16.706;2024-03-08T16:00:57;10.00;99.90
5017;DHT22;2527;50.892;16.706;2024-03-08T16:03:25;10.00;99.90
5017;DHT22;2527;50.892;16.706;2024-03-08T16:05:57;10.00;99.90
5017;DHT22;2527;50.892;16.706;2024-03-08T16:08:23;10.10;99.90
5017;DHT22;2527;50.892;16.706;2024-03-08T16:10:53;10.00;99.90
5017;DHT22;2527;50.892;16.706;2024-03-08T16:13:24;10.10;99.90
5017;DHT22;2527;50.892;16.706;2024-03-08T16:15:51;10.00;99.90